Ontario, Indiana
Current Conditions -  °F | °C
As of 1:15 PM on Thursday 27 Nov 2014 (Local Time) from KIRS Reporting Station
Light Snow Light Snow  
Wind Chill: 23°   Ceiling: 1600
Heat Index: 30°   Visibility: 7mi
Dew Point: 28°   Wind: 8mph
Humidity: 93%   Direction: 280°W
Pressure: 30.18"   Gusts: 20mph
Location:  41.7293°N, 85.4292°W
Report Text: KIRS 271815Z AUTO 28007G17KT 7SM -SN OVC016 M01/M02 A3018 RMK AO2
Loading
Personal Weather Stations






























Interactive Weather Map New forecast layout! Learn more

10-Day Weather Forecast

Advertisements
Track Severe Weather on mobile